createdAt,value
2023-03-03T04:01:08.937Z,23.20
2023-03-03T04:03:36.310Z,23.70
2023-03-03T04:06:03.582Z,23.43
2023-03-03T04:08:30.709Z,23.00
2023-03-03T04:10:57.886Z,24.90
2023-03-03T04:13:28.923Z,26.13
2023-03-03T04:15:56.126Z,23.37
2023-03-03T04:18:23.325Z,23.17
2023-03-03T04:20:52.369Z,23.60
2023-03-03T04:23:19.641Z,23.70
2023-03-03T04:25:48.161Z,23.40
2023-03-03T04:28:16.314Z,23.57
2023-03-03T04:30:43.925Z,24.60
2023-03-03T04:33:11.160Z,24.10
2023-03-03T04:35:38.359Z,23.80
2023-03-03T04:38:05.801Z,22.97
2023-03-03T04:40:33.038Z,23.37
2023-03-03T04:43:00.233Z,23.90
2023-03-03T04:45:27.393Z,24.77
2023-03-03T04:47:54.579Z,25.20
2023-03-03T04:50:21.759Z,23.27
2023-03-03T04:52:48.984Z,23.57
2023-03-03T04:55:16.768Z,21.77
2023-03-03T04:57:44.100Z,22.13
2023-03-03T05:00:13.323Z,24.03
2023-03-03T05:02:41.658Z,22.47
2023-03-03T05:05:13.682Z,21.87
2023-03-03T05:07:41.151Z,23.90
2023-03-03T05:10:09.076Z,25.30
2023-03-03T05:12:36.338Z,23.87
2023-03-03T05:15:03.850Z,23.77
2023-03-03T05:17:31.043Z,24.07
2023-03-03T05:19:58.264Z,25.30
2023-03-03T05:22:25.536Z,25.10
2023-03-03T05:24:53.787Z,24.00
2023-03-03T05:27:21.142Z,24.10
2023-03-03T05:29:48.353Z,23.30
2023-03-03T05:32:15.817Z,24.97
2023-03-03T05:34:43.155Z,24.70
2023-03-03T05:37:10.450Z,23.90
2023-03-03T05:39:37.806Z,22.67
2023-03-03T05:42:05.119Z,22.17
2023-03-03T05:44:32.392Z,22.77
2023-03-03T05:46:59.679Z,25.27
2023-03-03T05:49:26.947Z,23.07
2023-03-03T05:51:54.217Z,24.63
2023-03-03T05:54:21.575Z,24.13
2023-03-03T05:56:48.760Z,23.67
2023-03-03T05:59:15.917Z,24.87
2023-03-03T06:01:43.075Z,25.47
2023-03-03T06:04:10.369Z,23.30
2023-03-03T06:06:37.605Z,23.70
2023-03-03T06:09:05.097Z,25.25
2023-03-03T06:11:32.512Z,23.60
2023-03-03T06:13:59.983Z,22.60
2023-03-03T06:16:27.222Z,24.27
2023-03-03T06:18:54.580Z,23.60
2023-03-03T06:21:21.732Z,24.47
2023-03-03T06:23:48.919Z,23.17
2023-03-03T06:26:16.133Z,24.63
2023-03-03T06:28:43.378Z,24.03
2023-03-03T06:31:10.555Z,24.63
2023-03-03T06:33:38.376Z,24.83
2023-03-03T06:36:05.971Z,26.73
2023-03-03T06:38:33.165Z,24.83
2023-03-03T06:41:02.162Z,26.13
2023-03-03T06:43:29.290Z,26.87
2023-03-03T06:45:56.509Z,25.10
2023-03-03T06:48:23.830Z,26.80
2023-03-03T06:50:51.062Z,26.53
2023-03-03T06:53:19.584Z,24.13
2023-03-03T06:55:46.929Z,27.23
2023-03-03T06:58:20.499Z,26.70
2023-03-03T07:00:59.003Z,26.97
2023-03-03T07:03:36.226Z,26.27
2023-03-03T07:06:16.515Z,27.93
2023-03-03T07:08:43.722Z,27.73
2023-03-03T07:11:16.244Z,26.80
2023-03-03T07:13:48.260Z,28.63
2023-03-03T07:16:18.010Z,28.17
2023-03-03T07:18:58.765Z,31.40
2023-03-03T07:21:31.571Z,28.10
2023-03-03T07:24:00.125Z,27.33
2023-03-03T07:26:33.028Z,30.07
2023-03-03T07:29:20.528Z,26.27
2023-03-03T07:31:49.929Z,28.03
2023-03-03T07:34:30.741Z,27.47
2023-03-03T07:37:16.152Z,28.07
2023-03-03T07:39:45.529Z,27.90
2023-03-03T07:42:42.059Z,28.20
2023-03-03T07:45:30.687Z,28.93
2023-03-03T07:48:26.507Z,29.67
2023-03-03T07:50:53.754Z,29.93
2023-03-03T07:53:29.640Z,30.67
2023-03-03T07:55:56.849Z,29.63
2023-03-03T07:58:39.836Z,30.10
2023-03-03T08:01:34.690Z,29.07
2023-03-03T08:04:01.968Z,33.00
2023-03-03T08:06:53.190Z,29.37
2023-03-03T08:09:20.486Z,29.73
2023-03-03T08:12:06.159Z,30.33
2023-03-03T08:14:38.371Z,29.00
2023-03-03T08:17:20.787Z,26.60
2023-03-03T08:19:49.254Z,27.17
2023-03-03T08:22:19.449Z,28.63
2023-03-03T08:24:46.637Z,27.37
2023-03-03T08:27:13.856Z,28.50
2023-03-03T08:29:41.089Z,28.97
2023-03-03T08:32:08.430Z,29.47
2023-03-03T08:34:35.658Z,28.93
2023-03-03T08:37:03.043Z,28.87
2023-03-03T08:39:30.246Z,27.93
2023-03-03T08:41:57.823Z,29.10
2023-03-03T08:44:25.013Z,27.43
2023-03-03T08:46:52.214Z,27.30
2023-03-03T08:49:19.734Z,28.13
2023-03-03T08:51:47.189Z,27.27
2023-03-03T08:54:14.397Z,27.80
2023-03-03T08:56:41.692Z,27.93
2023-03-03T08:59:08.877Z,25.87
2023-03-03T09:01:36.107Z,27.57
2023-03-03T09:04:03.420Z,27.90
2023-03-03T09:06:30.649Z,27.63
2023-03-03T09:08:57.854Z,30.30
2023-03-03T09:11:27.782Z,28.10
2023-03-03T09:14:06.567Z,28.57
2023-03-03T09:16:39.282Z,28.67
2023-03-03T09:19:30.884Z,27.50
2023-03-03T09:22:20.303Z,30.97
2023-03-03T09:24:48.692Z,28.80
2023-03-03T09:27:24.272Z,29.17
2023-03-03T09:29:51.504Z,29.00
2023-03-03T09:32:35.017Z,27.67
2023-03-03T09:35:39.089Z,28.77
2023-03-03T09:38:16.355Z,27.47
2023-03-03T09:41:04.871Z,27.57
2023-03-03T09:43:55.215Z,29.37
2023-03-03T09:46:29.196Z,27.13
2023-03-03T09:49:17.195Z,29.57
2023-03-03T09:52:29.487Z,30.37
2023-03-03T09:55:44.184Z,29.07
2023-03-03T09:58:27.463Z,28.80
2023-03-03T10:01:25.289Z,27.70
2023-03-03T10:04:01.746Z,31.83
2023-03-03T10:07:01.162Z,34.10
2023-03-03T10:09:34.355Z,33.00
2023-03-03T10:12:01.497Z,29.83
2023-03-03T10:14:42.396Z,27.93
2023-03-03T10:17:24.402Z,29.23
2023-03-03T10:20:03.858Z,29.43
2023-03-03T10:22:31.041Z,29.53
2023-03-03T10:25:09.501Z,28.97
2023-03-03T10:27:42.495Z,28.47
2023-03-03T10:30:12.538Z,29.20
2023-03-03T10:32:58.201Z,28.50
2023-03-03T10:35:39.365Z,26.73
2023-03-03T10:38:14.711Z,28.40
2023-03-03T10:41:09.831Z,28.10
2023-03-03T10:43:55.218Z,28.07
2023-03-03T10:46:49.938Z,26.47
2023-03-03T10:49:25.765Z,26.67
2023-03-03T10:52:19.359Z,27.67
2023-03-03T10:55:06.353Z,27.30
2023-03-03T10:58:24.020Z,27.60
2023-03-03T11:01:00.491Z,28.83
2023-03-03T11:03:42.538Z,29.07
2023-03-03T11:06:20.740Z,28.07
2023-03-03T11:09:08.573Z,29.70
2023-03-03T11:11:47.291Z,28.47
2023-03-03T11:14:29.590Z,28.80
2023-03-03T11:17:25.263Z,30.47
2023-03-03T11:20:12.994Z,29.10
2023-03-03T11:22:55.813Z,27.17
2023-03-03T11:26:10.006Z,29.07
2023-03-03T11:28:43.163Z,29.30
2023-03-03T11:31:35.495Z,28.10
2023-03-03T11:34:08.856Z,28.80
2023-03-03T11:37:01.799Z,29.53
2023-03-03T11:39:29.025Z,28.03
2023-03-03T11:42:30.868Z,26.83
2023-03-03T11:45:21.978Z,29.73
2023-03-03T11:47:57.065Z,28.33
2023-03-03T11:50:38.438Z,28.60
2023-03-03T11:53:17.468Z,28.50
2023-03-03T11:55:49.782Z,28.20
2023-03-03T11:58:25.024Z,29.80
2023-03-03T12:01:22.536Z,29.63
2023-03-03T12:03:56.591Z,29.67
2023-03-03T12:07:01.834Z,30.20
2023-03-03T12:10:10.625Z,28.80
2023-03-03T12:12:44.785Z,29.40
2023-03-03T12:15:28.722Z,31.23
2023-03-03T12:17:55.843Z,30.20
2023-03-03T12:20:34.644Z,31.60
2023-03-03T12:23:15.637Z,31.30
2023-03-03T12:26:17.321Z,28.77
2023-03-03T12:28:55.056Z,31.37
2023-03-03T12:31:57.133Z,36.27
2023-03-03T12:34:34.163Z,30.77
2023-03-03T12:37:13.526Z,33.13
2023-03-03T12:40:07.391Z,34.17
2023-03-03T12:42:49.235Z,30.97
2023-03-03T12:45:31.997Z,32.33
2023-03-03T12:48:17.825Z,32.50
2023-03-03T12:51:04.506Z,33.27
2023-03-03T12:53:59.369Z,32.97
2023-03-03T12:56:31.748Z,33.67
2023-03-03T12:59:40.203Z,33.73
2023-03-03T13:02:34.062Z,36.27
2023-03-03T13:05:22.120Z,35.27
2023-03-03T13:08:16.433Z,34.37
2023-03-03T13:10:52.118Z,34.20
2023-03-03T13:13:32.004Z,34.37
2023-03-03T13:16:06.099Z,34.50
2023-03-03T13:18:52.170Z,36.57
2023-03-03T13:21:37.568Z,35.17
2023-03-03T13:24:37.461Z,35.97
2023-03-03T13:27:28.102Z,33.37
2023-03-03T13:30:12.902Z,32.97
2023-03-03T13:33:09.235Z,35.07
2023-03-03T13:35:56.741Z,37.50
2023-03-03T13:38:33.582Z,33.53
2023-03-03T13:41:26.637Z,37.87
2023-03-03T13:43:57.605Z,37.83
2023-03-03T13:46:37.128Z,36.50
2023-03-03T13:49:51.814Z,39.37
2023-03-03T13:52:28.873Z,40.40
2023-03-03T13:55:13.820Z,41.00
2023-03-03T13:57:46.631Z,37.40
2023-03-03T14:00:38.726Z,37.37
2023-03-03T14:03:21.559Z,36.97
2023-03-03T14:06:04.678Z,37.93
2023-03-03T14:09:00.553Z,36.67
2023-03-03T14:11:39.665Z,38.23
2023-03-03T14:14:15.652Z,37.27
2023-03-03T14:16:58.646Z,37.20
2023-03-03T14:19:33.055Z,40.10
2023-03-03T14:22:34.979Z,41.13
2023-03-03T14:25:06.279Z,44.63
2023-03-03T14:27:48.735Z,41.97
2023-03-03T14:30:27.265Z,38.73
2023-03-03T14:33:03.231Z,40.10
2023-03-03T14:35:34.590Z,40.97
2023-03-03T14:38:04.460Z,42.23
2023-03-03T14:40:34.090Z,40.23
2023-03-03T14:43:04.994Z,38.07
2023-03-03T14:45:40.197Z,39.03
2023-03-03T14:48:17.595Z,36.63
2023-03-03T14:50:58.269Z,38.23
2023-03-03T14:53:36.894Z,40.60
2023-03-03T14:56:50.224Z,38.67
2023-03-03T14:59:24.674Z,37.53
2023-03-03T15:02:18.192Z,37.37
2023-03-03T15:04:46.809Z,37.83
2023-03-03T15:07:34.725Z,39.67
2023-03-03T15:10:03.331Z,37.53
2023-03-03T15:12:33.381Z,36.93
2023-03-03T15:15:07.406Z,37.10
2023-03-03T15:17:41.175Z,36.73
2023-03-03T15:20:44.866Z,38.57
2023-03-03T15:23:23.635Z,39.60
2023-03-03T15:26:09.133Z,40.60
2023-03-03T15:29:01.646Z,35.40
2023-03-03T15:31:57.940Z,39.17
2023-03-03T15:35:01.630Z,37.43
2023-03-03T15:37:52.974Z,37.97
2023-03-03T15:40:48.722Z,41.73
2023-03-03T15:43:32.055Z,41.30
2023-03-03T15:46:40.368Z,39.87
2023-03-03T15:49:22.523Z,39.73
2023-03-03T15:52:03.394Z,41.97
2023-03-03T15:54:46.714Z,38.17
2023-03-03T15:57:24.079Z,37.40
2023-03-03T16:00:16.262Z,38.37
2023-03-03T16:02:58.841Z,38.33
2023-03-03T16:05:35.737Z,37.40
2023-03-03T16:08:17.462Z,37.47
2023-03-03T16:10:52.470Z,41.93
2023-03-03T16:13:49.898Z,40.30
2023-03-03T16:16:36.393Z,38.20
2023-03-03T16:19:31.540Z,39.30
2023-03-03T16:22:10.454Z,37.57
2023-03-03T16:25:01.608Z,41.27
2023-03-03T16:27:41.138Z,38.77
2023-03-03T16:30:28.042Z,40.03
2023-03-03T16:33:23.656Z,37.87
2023-03-03T16:36:08.013Z,40.17
2023-03-03T16:38:45.361Z,36.83
2023-03-03T16:41:53.057Z,36.70
2023-03-03T16:44:38.162Z,38.23
2023-03-03T16:47:43.698Z,40.57
2023-03-03T16:50:21.044Z,41.20
2023-03-03T16:53:07.853Z,38.40
2023-03-03T16:56:07.067Z,35.67
2023-03-03T16:58:40.254Z,37.50
2023-03-03T17:01:14.370Z,36.57
2023-03-03T17:04:15.449Z,38.20
2023-03-03T17:07:02.654Z,40.00
2023-03-03T17:09:39.665Z,38.80
2023-03-03T17:12:33.252Z,43.50
2023-03-03T17:15:19.671Z,40.13
2023-03-03T17:18:11.155Z,37.00
2023-03-03T17:21:00.366Z,43.10
2023-03-03T17:23:53.545Z,38.03
2023-03-03T17:26:32.478Z,36.60
2023-03-03T17:29:32.325Z,39.20
2023-03-03T17:32:20.831Z,36.70
2023-03-03T17:34:56.652Z,43.90
2023-03-03T17:37:44.114Z,43.40
2023-03-03T17:40:20.073Z,51.03
2023-03-03T17:43:04.090Z,39.83
2023-03-03T17:45:36.506Z,43.53
2023-03-03T17:48:09.859Z,47.43
2023-03-03T17:50:55.261Z,46.03
2023-03-03T17:53:52.392Z,46.40
2023-03-03T17:56:32.422Z,46.43
2023-03-03T17:59:14.577Z,45.87
2023-03-03T18:02:00.551Z,48.60
2023-03-03T18:05:06.149Z,46.93
2023-03-03T18:07:42.517Z,47.77
2023-03-03T18:10:09.666Z,56.77
2023-03-03T18:13:05.443Z,45.80
2023-03-03T18:15:41.822Z,40.87
2023-03-03T18:18:29.341Z,36.33
2023-03-03T18:21:03.319Z,34.97
2023-03-03T18:23:41.637Z,33.23
2023-03-03T18:26:43.018Z,37.17
2023-03-03T18:29:28.130Z,34.20
2023-03-03T18:31:58.587Z,41.97
2023-03-03T18:34:32.034Z,35.90
2023-03-03T18:37:31.360Z,36.27
2023-03-03T18:40:04.519Z,35.83
2023-03-03T18:42:40.356Z,35.33
2023-03-03T18:45:30.588Z,36.23
2023-03-03T18:48:11.826Z,32.80
2023-03-03T18:50:39.074Z,35.07
2023-03-03T18:53:25.075Z,35.03
2023-03-03T18:55:54.937Z,34.90
2023-03-03T18:58:35.064Z,38.67
2023-03-03T19:01:31.079Z,40.27
2023-03-03T19:04:20.124Z,39.90
2023-03-03T19:06:51.462Z,39.80
2023-03-03T19:09:40.332Z,40.77
2023-03-03T19:12:13.593Z,38.50
2023-03-03T19:14:45.385Z,37.80
2023-03-03T19:17:18.571Z,37.10
2023-03-03T19:20:06.104Z,40.17
2023-03-03T19:22:44.869Z,39.50
2023-03-03T19:25:17.820Z,42.50
2023-03-03T19:28:12.403Z,39.63
2023-03-03T19:31:01.194Z,38.40
2023-03-03T19:34:29.745Z,40.80
2023-03-03T19:37:27.299Z,40.43
2023-03-03T19:40:03.880Z,41.43
2023-03-03T19:43:09.388Z,42.83
2023-03-03T19:45:51.737Z,40.80
2023-03-03T19:48:56.429Z,43.07
2023-03-03T19:51:35.022Z,40.87
2023-03-03T19:54:34.908Z,42.93
2023-03-03T19:57:09.112Z,40.10
2023-03-03T19:59:54.943Z,43.77
2023-03-03T20:02:46.750Z,44.17
2023-03-03T20:05:24.718Z,44.63
2023-03-03T20:08:02.537Z,45.83
2023-03-03T20:10:58.687Z,43.40
2023-03-03T20:13:47.472Z,41.60
2023-03-03T20:16:42.032Z,45.57
2023-03-03T20:19:21.549Z,42.67
2023-03-03T20:21:58.300Z,38.17
2023-03-03T20:24:40.185Z,41.40
2023-03-03T20:27:19.663Z,40.13
2023-03-03T20:30:17.796Z,38.23
2023-03-03T20:33:26.746Z,40.37
2023-03-03T20:36:10.348Z,41.23
2023-03-03T20:39:04.856Z,39.03
2023-03-03T20:41:40.887Z,36.30
2023-03-03T20:44:40.218Z,32.93
2023-03-03T20:47:28.245Z,37.67
2023-03-03T20:50:05.194Z,37.47
2023-03-03T20:52:42.267Z,36.07
2023-03-03T20:55:40.247Z,35.73
2023-03-03T20:58:45.422Z,34.10
2023-03-03T21:01:16.426Z,33.87
2023-03-03T21:03:45.421Z,37.93
2023-03-03T21:06:16.135Z,36.50
2023-03-03T21:08:55.126Z,38.30
2023-03-03T21:11:33.902Z,39.70
2023-03-03T21:14:22.475Z,38.57
2023-03-03T21:16:51.755Z,38.20
2023-03-03T21:19:38.901Z,36.83
2023-03-03T21:22:06.098Z,40.63
2023-03-03T21:24:56.228Z,44.37
2023-03-03T21:27:38.766Z,41.13
2023-03-03T21:30:12.913Z,44.40
2023-03-03T21:32:49.129Z,49.27
2023-03-03T21:35:23.493Z,47.00
2023-03-03T21:37:53.597Z,44.77
2023-03-03T21:40:24.999Z,47.07
2023-03-03T21:43:01.201Z,42.80
2023-03-03T21:45:30.049Z,48.67
2023-03-03T21:47:59.703Z,43.13
2023-03-03T21:50:32.070Z,44.00
2023-03-03T21:52:59.283Z,39.37
2023-03-03T21:55:26.880Z,57.47
2023-03-03T21:57:54.081Z,46.83
